Time;durP1;ratioP1;P1;durP2;ratioP2;P2;SDS_P1;SDS_P2;PMS_P1;PMS_P2;Temp;Humidity;BMP_temperature;BMP_pressure;BME280_temperature;BME280_humidity;BME280_pressure;Samples;Min_cycle;Max_cycle;Signal;HPM_P1;HPM_P2
2022/12/27 00:01:33;;;;;;;19.05;2.60;;;1.20;99.90;;;;;;5032254;28;20087;-64
2022/12/27 00:03:58;;;;;;;6.13;1.60;;;1.10;99.90;;;;;;5030846;28;20037;-64
2022/12/27 00:06:25;;;;;;;13.18;2.28;;;1.10;99.90;;;;;;5032396;28;20034;-65
2022/12/27 00:08:51;;;;;;;9.45;2.90;;;1.10;99.90;;;;;;5031036;28;20033;-63
2022/12/27 00:11:20;;;;;;;14.07;2.67;;;1.10;99.90;;;;;;5030835;28;20588;-65
2022/12/27 00:13:46;;;;;;;14.15;2.70;;;1.10;99.90;;;;;;5032207;28;20033;-65
2022/12/27 00:16:14;;;;;;;11.65;2.72;;;1.10;99.90;;;;;;5032115;28;20029;-65
2022/12/27 00:18:40;;;;;;;11.45;2.50;;;1.10;99.90;;;;;;5031933;28;20026;-65
2022/12/27 00:21:09;;;;;;;11.75;2.15;;;1.10;99.90;;;;;;5032149;28;20029;-64
2022/12/27 00:23:41;;;;;;;13.15;2.97;;;1.10;99.90;;;;;;5012147;28;20032;-63
2022/12/27 00:26:18;;;;;;;13.07;3.78;;;1.00;99.90;;;;;;5029377;28;20041;-64
2022/12/27 00:28:44;;;;;;;11.02;2.80;;;1.00;99.90;;;;;;5024455;28;20031;-64
2022/12/27 00:31:10;;;;;;;19.38;2.03;;;1.00;99.90;;;;;;5028771;28;20060;-64
2022/12/27 00:33:39;;;;;;;11.00;2.58;;;1.00;99.90;;;;;;5031462;28;20025;-64
2022/12/27 00:36:06;;;;;;;9.60;2.13;;;0.90;99.90;;;;;;5031553;28;20113;-65
2022/12/27 00:38:33;;;;;;;5.28;2.20;;;0.90;99.90;;;;;;5028071;28;20037;-65
2022/12/27 00:40:59;;;;;;;21.17;2.22;;;0.90;99.90;;;;;;5031246;28;20029;-64
2022/12/27 00:43:25;;;;;;;7.00;2.30;;;0.90;99.90;;;;;;5031790;28;20026;-64
2022/12/27 00:45:51;;;;;;;8.73;2.05;;;0.80;99.90;;;;;;5031640;28;20030;-64
2022/12/27 00:48:17;;;;;;;8.10;2.05;;;0.80;99.90;;;;;;5030503;28;20052;-64
2022/12/27 00:50:43;;;;;;;11.50;3.00;;;0.80;99.90;;;;;;5031043;28;20565;-64
2022/12/27 00:53:10;;;;;;;3.80;1.38;;;0.90;99.90;;;;;;5028790;28;20033;-65
2022/12/27 00:55:36;;;;;;;7.72;1.83;;;0.90;99.90;;;;;;5031292;28;20104;-64
2022/12/27 00:58:02;;;;;;;4.18;1.70;;;0.90;99.90;;;;;;5030234;28;20096;-64
2022/12/27 01:00:28;;;;;;;10.32;1.95;;;0.90;99.90;;;;;;5013132;28;20056;-65
2022/12/27 01:02:54;;;;;;;4.82;1.88;;;0.90;99.90;;;;;;5012981;28;20026;-65
2022/12/27 01:05:20;;;;;;;5.47;1.98;;;0.90;99.90;;;;;;5031220;28;20441;-65
2022/12/27 01:07:46;;;;;;;6.88;1.75;;;0.90;99.90;;;;;;5029754;28;20032;-65
2022/12/27 01:10:12;;;;;;;5.45;1.65;;;0.90;99.90;;;;;;5030376;28;20025;-64
2022/12/27 01:12:37;;;;;;;9.40;1.70;;;1.00;99.90;;;;;;5030222;28;20037;-65
2022/12/27 01:15:05;;;;;;;10.38;1.88;;;1.00;99.90;;;;;;5030655;28;20029;-65
2022/12/27 01:17:30;;;;;;;8.80;1.85;;;1.00;99.90;;;;;;5030647;28;20163;-65
2022/12/27 01:19:56;;;;;;;4.28;1.67;;;0.90;99.90;;;;;;5030547;28;20108;-65
2022/12/27 01:22:22;;;;;;;16.30;2.38;;;0.90;99.90;;;;;;5029760;28;20032;-65
2022/12/27 01:24:47;;;;;;;10.80;2.33;;;0.90;99.90;;;;;;5031075;28;20101;-64
2022/12/27 01:27:13;;;;;;;7.78;2.10;;;0.80;99.90;;;;;;5030123;28;20442;-65
2022/12/27 01:29:39;;;;;;;4.47;1.60;;;0.90;99.90;;;;;;5029846;28;20096;-65
2022/12/27 01:32:04;;;;;;;17.42;2.28;;;0.90;99.90;;;;;;5030707;28;20029;-64
2022/12/27 01:34:30;;;;;;;15.35;2.42;;;0.90;99.90;;;;;;5029763;28;20064;-64
2022/12/27 01:36:55;;;;;;;7.47;2.22;;;0.90;99.90;;;;;;5030744;28;20026;-65
2022/12/27 01:39:21;;;;;;;5.97;2.03;;;0.90;99.90;;;;;;5027587;28;20079;-64
2022/12/27 01:44:39;;;;;;;7.22;1.63;;;0.90;99.90;;;;;;5000035;28;20120;-64
2022/12/27 01:47:32;;;;;;;8.45;2.20;;;0.90;99.90;;;;;;5030617;28;20021;-65
2022/12/27 01:50:07;;;;;;;5.97;2.15;;;0.90;99.90;;;;;;5029281;28;20120;-66
2022/12/27 01:52:38;;;;;;;11.95;2.83;;;1.00;99.90;;;;;;5030545;28;20044;-65
2022/12/27 01:55:11;;;;;;;5.30;2.30;;;1.00;99.90;;;;;;5030724;28;20151;-65
2022/12/27 01:57:37;;;;;;;8.43;4.35;;;1.10;99.90;;;;;;5029648;28;20056;-66
2022/12/27 02:00:04;;;;;;;8.23;2.78;;;1.30;99.90;;;;;;5030011;28;20029;-65
2022/12/27 02:02:29;;;;;;;4.50;2.20;;;1.40;99.90;;;;;;5030998;28;20029;-66
2022/12/27 02:04:56;;;;;;;10.68;3.15;;;1.50;99.90;;;;;;5028044;28;20133;-64
2022/12/27 02:07:28;;;;;;;9.77;2.83;;;1.60;99.90;;;;;;5026248;28;20112;-64
2022/12/27 02:09:57;;;;;;;8.63;2.58;;;1.80;99.90;;;;;;5030386;28;20060;-65
2022/12/27 02:12:24;;;;;;;11.02;2.58;;;1.90;99.90;;;;;;5030422;28;20021;-64
2022/12/27 02:14:49;;;;;;;12.38;2.47;;;1.90;99.90;;;;;;5030330;28;20036;-64
2022/12/27 02:17:22;;;;;;;13.27;2.25;;;2.00;99.90;;;;;;5029914;28;20033;-65
2022/12/27 02:20:15;;;;;;;9.93;3.85;;;2.10;99.90;;;;;;5027985;28;20049;-65
2022/12/27 02:25:50;;;;;;;7.07;2.30;;;2.20;99.90;;;;;;5016460;28;20044;-64
2022/12/27 02:28:21;;;;;;;10.90;2.15;;;2.30;99.90;;;;;;5031806;28;20029;-65
2022/12/27 02:30:50;;;;;;;9.32;2.55;;;2.30;99.90;;;;;;5031274;28;20497;-64
2022/12/27 02:33:23;;;;;;;11.43;2.70;;;2.30;99.90;;;;;;5033332;28;20167;-65
2022/12/27 02:36:07;;;;;;;7.33;2.23;;;2.20;99.90;;;;;;5032000;28;20022;-65
2022/12/27 02:38:39;;;;;;;7.70;1.67;;;2.00;99.90;;;;;;5033222;28;20283;-65
2022/12/27 02:55:41;;;;;;;10.95;1.92;;;1.40;99.90;;;;;;5031175;28;20037;-65
2022/12/27 02:58:29;;;;;;;6.55;2.05;;;1.20;99.90;;;;;;5032707;28;20025;-65
2022/12/27 03:04:21;;;;;;;2.93;1.60;;;1.10;99.90;;;;;;5032199;28;20091;-65
2022/12/27 03:07:10;;;;;;;6.07;1.85;;;1.10;99.90;;;;;;5018336;28;20097;-65
2022/12/27 03:15:54;;;;;;;15.23;2.17;;;1.00;99.90;;;;;;5032553;28;20072;-65
2022/12/27 03:18:26;;;;;;;6.82;2.05;;;1.00;99.90;;;;;;5032075;28;20037;-64
2022/12/27 03:26:29;;;;;;;14.68;2.50;;;1.30;99.90;;;;;;5033105;28;20033;-66
2022/12/27 03:34:38;;;;;;;19.73;3.00;;;1.60;99.90;;;;;;5033208;28;20033;-65
2022/12/27 03:40:28;;;;;;;8.75;1.83;;;1.70;99.90;;;;;;5032979;28;20445;-64
2022/12/27 03:43:11;;;;;;;4.10;1.75;;;1.60;99.90;;;;;;5031377;28;20475;-65
2022/12/27 03:49:06;;;;;;;6.40;2.38;;;1.50;99.90;;;;;;5032685;28;20057;-66
2022/12/27 03:51:38;;;;;;;18.10;2.08;;;1.40;99.90;;;;;;5032516;28;20026;-65
2022/12/27 03:54:29;;;;;;;5.82;1.63;;;1.40;99.90;;;;;;5032761;28;20106;-64
2022/12/27 03:57:01;;;;;;;4.85;1.67;;;1.50;99.90;;;;;;5031521;28;20034;-64
2022/12/27 03:59:27;;;;;;;14.75;1.85;;;1.60;99.90;;;;;;5013185;28;20437;-65
2022/12/27 04:01:53;;;;;;;7.65;2.33;;;1.60;99.90;;;;;;5032177;28;20071;-65
2022/12/27 04:04:19;;;;;;;4.57;1.58;;;1.60;99.90;;;;;;5032117;28;20018;-64
2022/12/27 04:06:44;;;;;;;7.22;1.83;;;1.60;99.90;;;;;;5032172;28;20025;-64
2022/12/27 04:36:31;;;;;;;15.27;2.15;;;1.00;99.90;;;;;;5031887;28;20075;-64
2022/12/27 04:38:56;;;;;;;12.25;2.78;;;1.00;99.90;;;;;;5031678;28;20037;-65
2022/12/27 04:55:19;;;;;;;9.30;2.65;;;1.10;99.90;;;;;;5029923;28;20045;-65
2022/12/27 04:57:45;;;;;;;13.35;2.88;;;1.00;99.90;;;;;;5031113;28;20535;-66
2022/12/27 05:02:57;;;;;;;6.97;2.30;;;1.10;99.90;;;;;;5011149;28;20749;-65
2022/12/27 05:05:24;;;;;;;6.20;2.17;;;1.20;99.90;;;;;;5011608;28;20029;-66
2022/12/27 05:16:02;;;;;;;10.60;3.05;;;1.60;99.90;;;;;;5030938;28;20041;-65
2022/12/27 05:18:28;;;;;;;15.68;2.70;;;1.70;99.90;;;;;;5013252;28;20402;-64
2022/12/27 05:20:53;;;;;;;11.50;2.83;;;1.80;99.90;;;;;;5029702;28;20034;-64
2022/12/27 05:26:03;;;;;;;9.18;1.77;;;2.00;99.90;;;;;;5030872;28;20068;-66
2022/12/27 05:28:29;;;;;;;9.98;2.55;;;2.10;99.90;;;;;;5030970;28;20057;-65
2022/12/27 05:31:01;;;;;;;11.57;2.28;;;2.20;99.90;;;;;;5030658;28;20056;-66
2022/12/27 05:33:29;;;;;;;8.15;2.05;;;2.30;99.90;;;;;;5029977;28;20021;-65
2022/12/27 05:35:57;;;;;;;6.03;2.38;;;2.40;99.90;;;;;;5043308;23;20041;-66
2022/12/27 05:38:22;;;;;;;8.60;2.05;;;2.40;99.90;;;;;;5029268;28;20037;-66
2022/12/27 05:40:48;;;;;;;11.98;2.22;;;2.50;99.90;;;;;;5028953;28;20041;-65
2022/12/27 05:43:14;;;;;;;8.45;2.45;;;2.50;99.90;;;;;;5030832;28;20083;-66
2022/12/27 05:45:39;;;;;;;4.45;2.70;;;2.60;99.90;;;;;;5030601;28;20035;-66
2022/12/27 05:48:05;;;;;;;12.50;1.80;;;2.60;99.90;;;;;;5029851;28;20053;-66
2022/12/27 05:50:30;;;;;;;9.00;3.35;;;2.60;99.90;;;;;;5030145;28;20029;-66
2022/12/27 05:52:56;;;;;;;16.73;2.05;;;2.60;99.90;;;;;;5023778;28;20026;-66
2022/12/27 05:55:22;;;;;;;5.32;2.10;;;2.70;99.90;;;;;;5028190;28;20075;-66
2022/12/27 05:57:47;;;;;;;10.18;1.65;;;2.70;99.90;;;;;;5029767;28;20100;-66
2022/12/27 06:00:13;;;;;;;16.73;3.17;;;2.80;99.90;;;;;;5030387;28;20475;-65
2022/12/27 06:02:40;;;;;;;12.75;3.65;;;2.80;99.90;;;;;;5029239;28;20116;-65
2022/12/27 06:05:07;;;;;;;17.67;2.95;;;2.80;99.90;;;;;;5021562;28;20468;-66
2022/12/27 06:07:35;;;;;;;12.35;3.30;;;2.80;99.90;;;;;;5028337;28;20026;-66
2022/12/27 06:10:01;;;;;;;11.07;3.03;;;2.90;99.90;;;;;;5030089;28;20021;-66
2022/12/27 06:12:26;;;;;;;12.23;4.07;;;2.90;99.90;;;;;;5030491;28;20026;-66
2022/12/27 06:14:52;;;;;;;8.60;3.30;;;2.90;99.90;;;;;;5030519;28;20033;-66
2022/12/27 06:17:18;;;;;;;6.15;3.03;;;2.90;99.90;;;;;;5029283;28;20109;-66
2022/12/27 06:19:43;;;;;;;6.65;3.03;;;2.80;99.90;;;;;;5029069;28;20021;-64
2022/12/27 06:22:09;;;;;;;9.65;1.98;;;2.70;99.90;;;;;;5022353;28;20130;-66
2022/12/27 06:24:34;;;;;;;7.50;2.10;;;2.60;99.90;;;;;;5029450;28;20029;-66
2022/12/27 06:27:00;;;;;;;13.55;2.40;;;2.50;99.90;;;;;;5030256;28;20036;-66
2022/12/27 06:29:25;;;;;;;7.40;2.22;;;2.40;99.90;;;;;;5030175;28;20029;-66
2022/12/27 06:31:51;;;;;;;3.45;2.35;;;2.30;99.90;;;;;;5011354;28;20375;-66
2022/12/27 06:34:17;;;;;;;9.90;2.35;;;2.30;99.90;;;;;;5029140;28;20034;-66
2022/12/27 06:36:48;;;;;;;8.35;2.50;;;2.30;99.90;;;;;;5029917;28;20515;-66
2022/12/27 06:39:14;;;;;;;8.43;2.80;;;2.40;99.90;;;;;;5030178;28;20053;-66
2022/12/27 06:41:39;;;;;;;10.00;2.45;;;2.50;99.90;;;;;;5030008;28;20057;-65
2022/12/27 06:44:05;;;;;;;5.50;2.47;;;2.50;99.90;;;;;;5030429;28;20702;-66
2022/12/27 06:46:31;;;;;;;9.77;2.40;;;2.50;99.90;;;;;;5029325;28;20372;-66
2022/12/27 06:48:56;;;;;;;6.82;2.40;;;2.60;99.90;;;;;;5029247;28;20037;-65
2022/12/27 06:51:22;;;;;;;11.98;3.45;;;2.60;99.90;;;;;;5029739;28;20096;-65
2022/12/27 06:53:47;;;;;;;11.05;4.80;;;2.60;99.90;;;;;;5030250;28;20087;-65
2022/12/27 06:56:17;;;;;;;9.95;3.63;;;2.60;99.90;;;;;;5029985;28;20104;-65
2022/12/27 06:58:43;;;;;;;8.10;3.13;;;2.60;99.90;;;;;;5024760;28;20053;-65
2022/12/27 07:01:17;;;;;;;3.63;2.22;;;2.50;99.90;;;;;;5017574;28;20038;-65
2022/12/27 07:03:46;;;;;;;;;;;2.50;99.90;;;;;;5023264;28;20108;-66
2022/12/27 07:06:12;;;;;;;8.85;3.70;;;2.50;99.90;;;;;;5029903;28;19913;-65
2022/12/27 07:08:38;;;;;;;4.93;2.25;;;2.50;99.90;;;;;;5031340;28;20091;-65
2022/12/27 07:11:06;;;;;;;10.25;2.10;;;2.60;99.90;;;;;;5032999;28;20029;-65
2022/12/27 07:13:36;;;;;;;20.08;4.45;;;2.60;99.90;;;;;;5032559;28;20105;-65
2022/12/27 07:16:10;;;;;;;9.73;2.83;;;2.70;99.90;;;;;;5011057;28;20091;-64
2022/12/27 07:18:36;;;;;;;26.55;11.20;;;2.70;99.90;;;;;;5033275;28;20109;-66
2022/12/27 07:21:06;;;;;;;38.00;17.13;;;2.80;99.90;;;;;;5013246;28;20478;-65
2022/12/27 07:23:32;;;;;;;33.42;17.70;;;2.80;99.90;;;;;;5024031;28;20037;-65
2022/12/27 07:26:27;;;;;;;20.35;11.75;;;2.80;99.90;;;;;;5033256;28;20026;-64
2022/12/27 07:28:54;;;;;;;14.90;6.70;;;2.80;99.90;;;;;;5032322;28;20049;-65
2022/12/27 07:31:25;;;;;;;14.25;4.38;;;2.80;99.90;;;;;;5030980;28;20033;-66
2022/12/27 07:33:51;;;;;;;12.13;4.90;;;2.90;99.90;;;;;;5025501;28;20090;-65
2022/12/27 07:36:20;;;;;;;17.80;4.93;;;2.90;99.90;;;;;;5013754;28;20086;-66
2022/12/27 07:38:46;;;;;;;11.57;3.75;;;3.00;99.90;;;;;;5032738;28;20025;-66
2022/12/27 07:41:13;;;;;;;4.72;2.70;;;3.00;99.90;;;;;;5013795;28;20037;-66
2022/12/27 07:43:39;;;;;;;8.80;2.63;;;3.10;99.90;;;;;;5025074;28;20025;-65
2022/12/27 07:46:15;;;;;;;7.60;3.42;;;3.10;99.90;;;;;;5032852;28;20394;-66
2022/12/27 07:48:41;;;;;;;7.05;2.75;;;3.10;99.90;;;;;;5032743;28;20034;-65
2022/12/27 07:51:07;;;;;;;14.23;5.28;;;3.10;99.90;;;;;;5014156;28;20491;-65
2022/12/27 07:53:33;;;;;;;33.15;10.57;;;3.10;99.90;;;;;;5024362;28;20029;-66
2022/12/27 07:56:05;;;;;;;59.17;17.45;;;3.00;99.90;;;;;;5030610;28;20044;-65
2022/12/27 07:58:35;;;;;;;50.25;17.25;;;2.90;99.90;;;;;;5032731;28;20026;-65
2022/12/27 08:01:02;;;;;;;42.88;14.50;;;2.80;99.90;;;;;;5032404;28;20109;-66
2022/12/27 08:03:28;;;;;;;45.78;15.02;;;2.80;99.90;;;;;;5032398;28;20547;-66
2022/12/27 08:05:53;;;;;;;32.63;10.07;;;2.80;99.90;;;;;;5032597;28;20156;-65
2022/12/27 08:08:22;;;;;;;79.00;18.77;;;2.80;99.90;;;;;;5030826;28;20411;-63
2022/12/27 08:10:48;;;;;;;58.38;16.05;;;2.80;99.90;;;;;;5030200;28;20401;-65
2022/12/27 08:13:13;;;;;;;74.80;20.42;;;2.80;99.90;;;;;;5032084;28;20037;-65
2022/12/27 08:15:41;;;;;;;69.03;18.65;;;2.80;99.90;;;;;;5032362;28;20072;-65
2022/12/27 08:18:07;;;;;;;67.95;17.65;;;2.80;99.90;;;;;;5032257;28;20036;-65
2022/12/27 08:20:33;;;;;;;81.32;21.17;;;2.80;99.90;;;;;;5030974;28;20083;-65
2022/12/27 08:22:58;;;;;;;100.63;25.08;;;2.80;99.90;;;;;;5031029;28;20041;-65
2022/12/27 08:25:24;;;;;;;90.78;23.45;;;2.80;99.90;;;;;;5030900;28;20076;-63
2022/12/27 08:27:49;;;;;;;75.50;20.10;;;2.90;99.90;;;;;;5014094;28;20025;-64
2022/12/27 08:30:15;;;;;;;50.75;15.23;;;3.00;99.90;;;;;;5031653;28;20138;-65
2022/12/27 08:32:41;;;;;;;41.80;13.40;;;3.10;99.90;;;;;;5031943;28;20099;-65
2022/12/27 08:35:06;;;;;;;34.17;11.65;;;3.20;99.90;;;;;;5031904;28;20553;-65
2022/12/27 08:37:32;;;;;;;43.58;12.02;;;3.30;99.90;;;;;;5029741;28;20144;-65
2022/12/27 08:39:58;;;;;;;36.55;9.20;;;3.40;99.90;;;;;;5031376;28;20075;-65
2022/12/27 08:42:24;;;;;;;30.00;8.55;;;3.50;99.90;;;;;;5030602;28;20076;-65
2022/12/27 08:44:50;;;;;;;33.85;8.15;;;3.50;99.90;;;;;;5013847;28;20045;-65
2022/12/27 08:47:15;;;;;;;24.25;6.95;;;3.60;99.90;;;;;;5031675;28;20049;-64
2022/12/27 08:49:41;;;;;;;11.07;4.05;;;3.70;99.90;;;;;;5031611;28;20018;-67
2022/12/27 08:52:06;;;;;;;62.03;17.45;;;3.70;99.90;;;;;;5028459;28;20167;-66
2022/12/27 08:54:32;;;;;;;16.15;5.75;;;3.80;99.90;;;;;;5031428;28;20030;-65
2022/12/27 08:56:58;;;;;;;11.20;3.88;;;3.90;99.90;;;;;;5031269;28;20029;-66
2022/12/27 08:59:23;;;;;;;7.03;2.08;;;4.00;99.90;;;;;;5022062;28;20029;-66
2022/12/27 09:01:49;;;;;;;7.43;2.10;;;4.10;99.90;;;;;;5031090;28;20482;-65
2022/12/27 09:04:14;;;;;;;3.88;1.33;;;4.20;99.90;;;;;;5031307;28;20080;-65
2022/12/27 09:06:40;;;;;;;8.93;2.67;;;4.30;99.90;;;;;;5029043;28;20030;-65
2022/12/27 09:09:06;;;;;;;4.63;1.70;;;4.30;99.90;;;;;;5031200;28;20030;-66
2022/12/27 09:11:33;;;;;;;5.20;2.33;;;4.40;99.90;;;;;;5030978;28;20390;-65
2022/12/27 09:14:01;;;;;;;16.80;4.72;;;4.50;99.90;;;;;;5028921;28;20107;-65
2022/12/27 09:16:28;;;;;;;32.65;9.27;;;4.50;99.90;;;;;;5028375;28;20150;-65
2022/12/27 09:18:55;;;;;;;10.80;5.05;;;4.50;99.90;;;;;;5015233;28;20060;-64
2022/12/27 09:21:23;;;;;;;12.45;2.75;;;4.60;99.90;;;;;;5022347;28;20029;-65
2022/12/27 09:23:49;;;;;;;12.73;4.43;;;4.60;99.90;;;;;;5013266;28;20132;-65
2022/12/27 09:26:23;;;;;;;11.50;3.53;;;4.80;99.90;;;;;;5029901;28;20091;-65
2022/12/27 09:28:49;;;;;;;21.17;3.72;;;4.80;99.90;;;;;;5031234;28;20025;-65
2022/12/27 09:31:16;;;;;;;10.98;3.10;;;4.80;99.90;;;;;;5029465;28;20046;-65
2022/12/27 09:33:42;;;;;;;15.13;3.60;;;4.90;99.90;;;;;;5031028;28;20045;-65
2022/12/27 09:36:16;;;;;;;9.45;3.30;;;4.90;99.90;;;;;;5021930;28;20068;-65
2022/12/27 09:38:43;;;;;;;;;;;5.00;99.90;;;;;;5023733;28;20051;-66
2022/12/27 09:41:33;;;;;;;15.10;3.63;;;5.00;99.90;;;;;;5030111;28;19909;-66
2022/12/27 09:44:04;;;;;;;3.97;1.52;;;5.10;99.90;;;;;;5031320;28;20033;-65
2022/12/27 09:46:37;;;;;;;6.53;2.05;;;5.20;99.90;;;;;;5029540;28;20121;-66
2022/12/27 09:49:03;;;;;;;13.13;2.30;;;5.30;99.90;;;;;;5030813;28;20025;-66
2022/12/27 09:51:34;;;;;;;3.47;1.63;;;5.50;99.90;;;;;;5021631;28;20550;-66
2022/12/27 09:54:24;;;;;;;6.13;1.70;;;5.60;99.90;;;;;;5030761;28;20041;-66
2022/12/27 09:56:51;;;;;;;3.72;2.25;;;5.70;99.90;;;;;;5030669;28;20087;-66
2022/12/27 09:59:33;;;;;;;8.13;1.70;;;5.70;99.90;;;;;;5029003;28;20517;-66
2022/12/27 10:01:58;;;;;;;7.43;2.47;;;5.90;99.90;;;;;;5025233;28;20048;-66
2022/12/27 10:04:25;;;;;;;12.95;3.92;;;5.90;99.90;;;;;;5030601;28;20454;-66
2022/12/27 10:07:09;;;;;;;7.68;2.20;;;5.90;99.90;;;;;;5029382;28;20028;-66
2022/12/27 10:09:57;;;;;;;5.53;3.03;;;6.00;99.90;;;;;;5022309;28;20037;-66
2022/12/27 10:12:45;;;;;;;21.63;7.60;;;6.10;99.90;;;;;;5030733;28;20053;-67
2022/12/27 10:15:22;;;;;;;11.00;3.15;;;6.10;99.90;;;;;;5026789;28;20387;-66
2022/12/27 10:18:16;;;;;;;5.18;2.05;;;6.20;99.90;;;;;;5023593;28;20144;-66
2022/12/27 10:21:25;;;;;;;3.22;1.83;;;6.30;99.90;;;;;;5030247;28;20021;-66
2022/12/27 10:24:29;;;;;;;9.45;2.38;;;6.50;99.90;;;;;;5028359;28;20033;-66
2022/12/27 10:26:54;;;;;;;6.60;1.95;;;6.60;99.90;;;;;;5023958;28;20050;-66
2022/12/27 10:29:22;;;;;;;6.55;2.22;;;6.50;99.90;;;;;;5026948;28;20112;-64
2022/12/27 10:31:49;;;;;;;7.05;2.10;;;6.50;99.90;;;;;;5012090;28;20017;-66
2022/12/27 10:34:22;;;;;;;13.95;2.03;;;6.50;99.90;;;;;;5028297;28;20065;-66
2022/12/27 10:36:50;;;;;;;5.57;2.47;;;6.50;99.90;;;;;;5023420;28;20041;-65
2022/12/27 10:39:18;;;;;;;11.82;4.20;;;6.50;99.90;;;;;;5029092;28;20120;-66
2022/12/27 10:42:17;;;;;;;3.75;2.10;;;6.40;99.90;;;;;;5022579;28;20018;-66
2022/12/27 10:44:43;;;;;;;6.68;2.45;;;6.40;99.90;;;;;;5014756;28;20021;-66
2022/12/27 10:47:09;;;;;;;5.47;2.08;;;6.50;99.90;;;;;;5032371;28;20037;-66
2022/12/27 10:49:36;;;;;;;11.13;4.35;;;6.70;99.90;;;;;;5025633;28;20029;-66
2022/12/27 10:52:20;;;;;;;6.53;2.05;;;6.80;99.90;;;;;;5033837;28;20394;-66
2022/12/27 10:54:56;;;;;;;9.98;2.38;;;6.90;99.90;;;;;;5016030;28;20037;-66
2022/12/27 10:57:32;;;;;;;7.53;2.95;;;7.00;99.90;;;;;;5016036;28;20119;-66
2022/12/27 11:00:17;;;;;;;12.80;2.35;;;7.10;99.90;;;;;;5031382;28;20199;-66
2022/12/27 11:02:59;;;;;;;2.78;1.20;;;7.10;99.90;;;;;;5033340;28;20159;-66
2022/12/27 11:05:26;;;;;;;5.80;1.45;;;7.10;99.90;;;;;;5033766;28;20053;-66
2022/12/27 11:07:52;;;;;;;2.50;1.30;;;7.00;99.90;;;;;;5027744;28;20033;-66
2022/12/27 11:10:23;;;;;;;5.28;1.50;;;7.10;99.90;;;;;;5030533;28;20087;-66
2022/12/27 11:12:58;;;;;;;11.52;1.80;;;7.00;99.90;;;;;;5031555;28;20041;-66
2022/12/27 11:15:27;;;;;;;6.82;1.52;;;7.00;99.90;;;;;;5032540;28;20034;-66
2022/12/27 11:17:56;;;;;;;8.60;2.05;;;7.00;99.90;;;;;;5033453;28;20033;-66
2022/12/27 11:20:38;;;;;;;10.80;1.67;;;6.90;99.90;;;;;;5033165;28;20545;-66
2022/12/27 11:23:14;;;;;;;6.70;2.42;;;7.00;99.90;;;;;;5033536;28;20021;-66
2022/12/27 11:26:00;;;;;;;5.53;1.77;;;7.10;99.90;;;;;;5033202;28;20032;-66
2022/12/27 11:28:43;;;;;;;8.55;2.72;;;7.10;99.90;;;;;;5031314;28;20041;-66
2022/12/27 11:31:14;;;;;;;11.90;3.95;;;7.20;99.90;;;;;;5032872;28;20487;-66
2022/12/27 11:33:54;;;;;;;7.97;2.22;;;7.20;99.90;;;;;;5033187;28;20037;-66
2022/12/27 11:36:27;;;;;;;4.75;1.50;;;7.30;99.90;;;;;;5032820;28;20578;-65
2022/12/27 11:38:52;;;;;;;9.65;1.33;;;7.30;99.90;;;;;;5033210;28;20040;-65
2022/12/27 11:41:47;;;;;;;15.55;6.22;;;7.40;99.90;;;;;;5030859;28;20026;-66
2022/12/27 11:44:30;;;;;;;14.50;5.60;;;7.30;99.90;;;;;;5061268;23;20682;-64
2022/12/27 11:47:02;;;;;;;6.20;3.10;;;7.30;99.90;;;;;;5045149;28;20039;-63
2022/12/27 11:49:56;;;;;;;17.75;7.10;;;7.20;99.90;;;;;;5050639;28;20037;-63
2022/12/27 11:52:59;;;;;;;26.02;9.75;;;7.20;99.90;;;;;;5050028;28;20028;-64
2022/12/27 11:55:34;;;;;;;22.83;6.28;;;7.20;99.90;;;;;;5031561;28;20026;-63
2022/12/27 11:58:27;;;;;;;9.88;3.38;;;7.20;99.90;;;;;;5032192;28;20026;-64
2022/12/27 12:01:16;;;;;;;17.20;7.22;;;7.20;99.90;;;;;;5039244;28;20025;-64
2022/12/27 12:04:13;;;;;;;28.23;9.60;;;7.10;99.90;;;;;;5024623;28;20032;-63
2022/12/27 12:06:51;;;;;;;23.40;9.18;;;7.10;99.90;;;;;;5030722;28;20096;-62
2022/12/27 12:09:53;;;;;;;37.20;13.98;;;7.20;99.90;;;;;;5044857;28;20112;-64
2022/12/27 12:12:31;;;;;;;42.92;14.82;;;7.20;99.90;;;;;;5026184;28;20091;-64
2022/12/27 12:15:20;;;;;;;29.35;10.20;;;7.30;99.90;;;;;;5030303;28;20018;-65
2022/12/27 12:18:21;;;;;;;22.80;8.18;;;7.40;99.90;;;;;;5019745;28;20479;-64
2022/12/27 12:21:29;;;;;;;13.93;4.82;;;7.30;99.90;;;;;;5003535;28;20072;-62
2022/12/27 12:24:21;;;;;;;15.20;5.53;;;7.30;99.90;;;;;;4987386;28;20030;-63
2022/12/27 12:27:18;;;;;;;14.10;4.25;;;7.20;99.90;;;;;;5026920;28;20097;-64
2022/12/27 12:30:05;;;;;;;5.50;2.38;;;7.20;99.90;;;;;;5026578;28;20049;-64
2022/12/27 12:32:39;;;;;;;11.30;4.20;;;7.20;99.90;;;;;;5032096;28;20032;-64
2022/12/27 12:35:41;;;;;;;8.80;3.28;;;7.30;99.90;;;;;;5031985;28;20052;-64
2022/12/27 12:38:20;;;;;;;8.30;2.92;;;7.20;99.90;;;;;;5030633;28;20491;-64
2022/12/27 12:41:06;;;;;;;10.30;2.88;;;7.30;99.90;;;;;;5011846;28;20550;-65
2022/12/27 12:44:10;;;;;;;10.18;3.55;;;7.40;99.90;;;;;;5020339;28;20029;-63
2022/12/27 12:46:55;;;;;;;8.35;3.65;;;7.60;99.90;;;;;;5009469;28;20187;-64
2022/12/27 12:49:43;;;;;;;9.25;3.47;;;7.70;99.90;;;;;;5030351;28;20045;-64
2022/12/27 12:52:50;;;;;;;5.68;2.92;;;7.70;99.90;;;;;;5029580;28;20371;-64
2022/12/27 12:55:36;;;;;;;8.63;2.88;;;7.80;99.90;;;;;;5000214;28;20449;-64
2022/12/27 12:58:14;;;;;;;5.88;2.50;;;7.90;99.90;;;;;;5029113;28;20035;-64
2022/12/27 13:01:20;;;;;;;5.80;1.85;;;7.80;99.90;;;;;;5027926;28;20017;-64
2022/12/27 13:03:46;;;;;;;8.75;1.92;;;7.90;99.90;;;;;;5031381;28;20391;-64
2022/12/27 13:06:20;;;;;;;6.50;1.85;;;7.80;99.90;;;;;;5031265;28;20033;-63
2022/12/27 13:09:01;;;;;;;8.10;3.33;;;7.80;99.90;;;;;;5016740;28;20057;-63
2022/12/27 13:11:30;;;;;;;9.55;3.05;;;7.80;99.90;;;;;;5029304;28;20380;-64
2022/12/27 13:14:33;;;;;;;9.45;3.00;;;7.80;99.90;;;;;;5029806;28;20029;-64
2022/12/27 13:17:14;;;;;;;10.32;2.08;;;7.80;99.90;;;;;;5011560;28;20061;-64
2022/12/27 13:20:05;;;;;;;13.70;2.15;;;7.80;99.90;;;;;;5011326;28;20060;-63
2022/12/27 13:22:51;;;;;;;6.53;2.25;;;7.80;99.90;;;;;;5015265;28;20044;-64
2022/12/27 13:25:24;;;;;;;9.48;3.47;;;7.90;99.90;;;;;;5021521;28;20546;-64
2022/12/27 13:28:31;;;;;;;8.02;3.33;;;7.90;99.90;;;;;;5031076;28;20020;-64
2022/12/27 13:31:34;;;;;;;12.82;3.42;;;7.90;99.90;;;;;;5030934;28;20100;-64
2022/12/27 13:34:21;;;;;;;5.13;2.22;;;8.00;99.90;;;;;;5031148;28;20051;-63
2022/12/27 13:36:58;;;;;;;8.07;2.90;;;8.00;99.90;;;;;;5031110;28;20021;-63
2022/12/27 13:39:42;;;;;;;14.55;5.32;;;8.10;99.90;;;;;;5021939;28;20778;-63
2022/12/27 13:42:21;;;;;;;10.05;3.15;;;8.00;99.90;;;;;;5030658;28;20028;-63
2022/12/27 13:45:20;;;;;;;7.20;2.13;;;8.00;99.90;;;;;;5030698;28;20083;-65
2022/12/27 13:48:01;;;;;;;7.18;2.33;;;8.00;99.90;;;;;;5030544;28;20029;-62
2022/12/27 13:50:52;;;;;;;7.18;2.03;;;7.90;99.90;;;;;;5030567;28;20021;-64
2022/12/27 13:53:45;;;;;;;9.85;2.70;;;7.80;99.90;;;;;;5026104;28;20026;-64
2022/12/27 13:56:20;;;;;;;16.08;3.20;;;7.80;99.90;;;;;;5030979;28;20025;-64
2022/12/27 13:58:51;;;;;;;8.18;1.67;;;7.60;99.90;;;;;;5030723;28;20040;-64
2022/12/27 14:01:28;;;;;;;8.45;1.70;;;7.60;99.90;;;;;;5030438;28;20084;-64
2022/12/27 14:04:23;;;;;;;3.45;1.00;;;7.50;99.90;;;;;;5033248;28;20411;-64
2022/12/27 14:07:21;;;;;;;11.13;1.77;;;7.50;99.90;;;;;;5008412;28;20125;-64
2022/12/27 14:09:58;;;;;;;9.75;1.85;;;7.50;99.90;;;;;;5010668;28;20076;-64
2022/12/27 14:12:48;;;;;;;3.70;1.60;;;7.50;99.90;;;;;;5011055;28;20141;-63
2022/12/27 14:15:18;;;;;;;8.70;2.25;;;7.50;99.90;;;;;;5019061;28;20049;-63
2022/12/27 14:17:50;;;;;;;7.35;3.05;;;7.60;99.90;;;;;;5030693;28;20521;-64
2022/12/27 14:20:34;;;;;;;4.68;2.20;;;7.60;99.90;;;;;;5034434;28;20104;-64
2022/12/27 14:23:10;;;;;;;;;;;7.70;99.90;;;;;;5035039;28;20025;-64
2022/12/27 14:25:44;;;;;;;7.40;2.28;;;7.80;99.90;;;;;;5034328;28;19905;-64
2022/12/27 14:28:31;;;;;;;6.22;2.22;;;7.80;99.90;;;;;;5034640;28;20494;-64
2022/12/27 14:31:15;;;;;;;3.70;1.55;;;7.90;99.90;;;;;;5033015;28;20075;-64
2022/12/27 14:34:23;;;;;;;8.18;1.58;;;7.90;99.90;;;;;;5032755;28;20032;-64
2022/12/27 14:37:18;;;;;;;8.98;1.17;;;7.90;99.90;;;;;;5034272;28;20032;-63
2022/12/27 14:40:09;;;;;;;5.38;1.42;;;7.80;99.90;;;;;;5034267;28;20044;-64
2022/12/27 14:43:02;;;;;;;3.95;1.35;;;7.80;99.90;;;;;;5034339;28;20442;-64
2022/12/27 14:46:04;;;;;;;7.75;1.67;;;7.80;99.90;;;;;;5025754;28;20087;-64
2022/12/27 14:48:51;;;;;;;4.10;1.77;;;7.60;99.90;;;;;;5034015;28;20103;-64
2022/12/27 14:51:55;;;;;;;4.00;1.73;;;7.50;99.90;;;;;;5033819;28;20096;-64
2022/12/27 14:54:32;;;;;;;13.75;4.10;;;7.50;99.90;;;;;;4969046;28;20842;-64
2022/12/27 14:57:04;;;;;;;6.70;1.83;;;7.40;99.90;;;;;;5025760;28;20033;-64
2022/12/27 14:59:44;;;;;;;4.93;1.88;;;7.30;99.90;;;;;;5029603;28;20033;-62
2022/12/27 15:02:40;;;;;;;7.22;3.05;;;7.30;99.90;;;;;;5024303;28;20099;-63
2022/12/27 15:05:33;;;;;;;14.35;4.72;;;7.20;99.90;;;;;;5013879;28;20028;-64
2022/12/27 15:08:19;;;;;;;7.05;3.42;;;7.10;99.90;;;;;;5028297;28;20036;-64
2022/12/27 15:10:54;;;;;;;10.23;3.55;;;7.00;99.90;;;;;;5033231;28;20026;-64